Elk River, MN

9:18 PM CDT on May 24, 2015 (GMT -0500)
Anoka County / Blaine Airport | | Change Station
CLOSE
Current Station
Airport
Location: Anoka County,
Elevation: 912 ft
Nearby Weather Stations

Elev 912 ft 45.14 °N, 93.21 °W | Updated 4 minutes ago

Rain
Rain
61 °F
Feels Like 61 °F
N
10
Wind Variable Wind from ENE

Today
High -- | Low -- °F
--% Chance of Precip.
Yesterday
High -- | Low -- °F
Precip. -- in
5:35 AM 8:47 PM
Waxing Crescent, 44% visible
Pressure 29.84 in
Visibility 3.0 miles
Clouds Scattered Clouds 600 ft
Overcast 900 ft
Dew Point 61 °F
Humidity 100%
Rainfall 0.00 in
Snow Depth Not available.
UV 0 out of 12
Pollen 5.60 out of 12
Air Quality Not available.
Flu Activity Sporadic
METAR KANE 250214Z AUTO 07009KT 3SM -DZ SCT006 OVC009 16/16 A2984 RMK AO2

More Conditions Fewer Conditions

Pressure 29.84 in
Visibility 3.0 miles
Clouds Scattered Clouds 600 ft
Overcast 900 ft
Dew Point 61 °F
Humidity 100%
Rainfall 0.00 in
Snow Depth Not available.
UV 0 out of 12
Pollen 5.60 out of 12
Air Quality Not available.
Flu Activity Sporadic
METAR KANE 250214Z AUTO 07009KT 3SM -DZ SCT006 OVC009 16/16 A2984 RMK AO2

More Conditions Fewer Conditions

10-Day Weather Forecast

Almanac

Astronomy

May. 24, 2015 Rise Set
Actual Time
Civil Twilight
Nautical Twilight
Astronomical Twilight
Moon
Length of Visible Light
Length of Day
Tomorrow will be .
, % of the Moon is Illuminated

Today's Extremes

State Highs State Lows

Community

WunderPhotos

Upload Photos

1,823,924 photos uploaded!

WunderBlogs® & News

Nearby

Air Quality

  Air Quality AQ Index Pollutant
Not available.

Snow Depth

Station Depth Elevation

Earthquake Activity

City Distance Mag. Time & Date
Minimum magnitude displayed is 2.5.

Coastal Water Temperatures

Place Temperature

Stations

Nearby Weather Stations

Station Location Temp. Windchill Dew Point Humidity Wind Precip. Elev Updated Type